createdAt,value
2023-02-28T00:01:04.267Z,5.27
2023-02-28T00:03:25.565Z,3.90
2023-02-28T00:05:46.804Z,4.10
2023-02-28T00:08:09.444Z,4.17
2023-02-28T00:10:32.176Z,3.90
2023-02-28T00:12:54.055Z,4.17
2023-02-28T00:15:15.059Z,3.83
2023-02-28T00:17:36.274Z,5.13
2023-02-28T00:19:57.878Z,4.57
2023-02-28T00:22:19.540Z,4.50
2023-02-28T00:24:42.246Z,4.13
2023-02-28T00:27:03.521Z,3.70
2023-02-28T00:29:24.793Z,4.00
2023-02-28T00:31:46.140Z,4.40
2023-02-28T00:34:07.512Z,5.90
2023-02-28T00:36:28.869Z,4.10
2023-02-28T00:38:50.288Z,4.37
2023-02-28T00:41:12.930Z,4.80
2023-02-28T00:43:34.692Z,4.17
2023-02-28T00:45:56.021Z,5.70
2023-02-28T00:48:17.312Z,5.43
2023-02-28T00:50:38.830Z,4.30
2023-02-28T00:53:00.254Z,4.13
2023-02-28T00:55:21.253Z,4.33
2023-02-28T00:57:43.746Z,4.57
2023-02-28T01:00:05.822Z,4.40
2023-02-28T01:02:27.093Z,4.67
2023-02-28T01:04:48.604Z,4.20
2023-02-28T01:07:09.603Z,4.30
2023-02-28T01:09:30.818Z,4.67
2023-02-28T01:11:52.144Z,4.40
2023-02-28T01:14:16.329Z,4.40
2023-02-28T01:16:37.427Z,4.27
2023-02-28T01:18:58.663Z,4.70
2023-02-28T01:21:21.332Z,4.97
2023-02-28T01:23:42.765Z,4.83
2023-02-28T01:26:05.826Z,4.67
2023-02-28T01:28:26.926Z,4.60
2023-02-28T01:30:51.401Z,4.60
2023-02-28T01:33:12.533Z,5.17
2023-02-28T01:35:34.469Z,5.00
2023-02-28T01:37:55.833Z,5.33
2023-02-28T01:40:17.261Z,5.47
2023-02-28T01:42:38.144Z,5.10
2023-02-28T01:45:02.339Z,5.00
2023-02-28T01:47:25.386Z,4.60
2023-02-28T01:49:46.660Z,5.03
2023-02-28T01:52:08.494Z,4.83
2023-02-28T01:54:31.448Z,5.07
2023-02-28T01:56:56.021Z,6.00
2023-02-28T01:59:22.309Z,5.30
2023-02-28T02:01:43.718Z,5.00
2023-02-28T02:04:06.297Z,5.27
2023-02-28T02:06:29.608Z,17.60
2023-02-28T02:08:50.798Z,6.03
2023-02-28T02:11:19.683Z,4.90
2023-02-28T02:13:48.369Z,5.00
2023-02-28T02:16:17.914Z,6.60
2023-02-28T02:18:42.764Z,7.03
2023-02-28T02:21:16.102Z,4.57
2023-02-28T02:23:58.082Z,4.50
2023-02-28T02:26:45.666Z,4.93
2023-02-28T02:29:22.807Z,5.77
2023-02-28T02:32:10.892Z,5.40
2023-02-28T02:34:52.990Z,5.80
2023-02-28T02:37:29.863Z,5.67
2023-02-28T02:39:54.959Z,6.57
2023-02-28T02:42:17.503Z,5.93
2023-02-28T02:44:45.495Z,5.40
2023-02-28T02:47:10.058Z,4.83
2023-02-28T02:49:33.449Z,5.30
2023-02-28T02:51:55.766Z,6.00
2023-02-28T02:54:20.111Z,5.47
2023-02-28T02:56:43.270Z,5.57
2023-02-28T02:59:06.214Z,5.13
2023-02-28T03:01:29.778Z,5.03
2023-02-28T03:03:51.637Z,6.37
2023-02-28T03:06:12.637Z,6.77
2023-02-28T03:08:36.829Z,5.77
2023-02-28T03:11:01.415Z,5.13
2023-02-28T03:13:31.037Z,5.40
2023-02-28T03:16:00.487Z,6.07
2023-02-28T03:18:26.978Z,5.70
2023-02-28T03:20:53.186Z,5.70
2023-02-28T03:23:18.446Z,5.70
2023-02-28T03:25:45.290Z,5.70
2023-02-28T03:28:10.954Z,6.27
2023-02-28T03:30:36.010Z,5.73
2023-02-28T03:32:59.107Z,5.80
2023-02-28T03:35:22.880Z,6.10
2023-02-28T03:37:45.164Z,5.70
2023-02-28T03:40:09.427Z,5.80
2023-02-28T03:42:31.629Z,5.33
2023-02-28T03:44:55.243Z,5.77
2023-02-28T03:47:18.428Z,6.20
2023-02-28T03:49:44.290Z,6.20
2023-02-28T03:52:08.240Z,6.00
2023-02-28T03:54:31.835Z,6.30
2023-02-28T03:56:56.234Z,6.17
2023-02-28T03:59:19.468Z,8.30
2023-02-28T04:01:43.930Z,6.10
2023-02-28T04:04:05.868Z,6.30
2023-02-28T04:06:28.179Z,6.33
2023-02-28T04:08:49.789Z,6.33
2023-02-28T04:11:25.798Z,6.13
2023-02-28T04:13:47.677Z,7.27
2023-02-28T04:16:18.722Z,6.17
2023-02-28T04:18:44.870Z,6.53
2023-02-28T04:21:06.799Z,6.77
2023-02-28T04:23:28.068Z,6.10
2023-02-28T04:25:49.182Z,8.87
2023-02-28T04:28:10.734Z,10.13
2023-02-28T04:30:33.465Z,6.63
2023-02-28T04:32:54.679Z,6.53
2023-02-28T04:35:17.737Z,6.80
2023-02-28T04:37:38.806Z,6.63
2023-02-28T04:40:00.209Z,8.50
2023-02-28T04:42:21.485Z,6.70
2023-02-28T04:44:43.043Z,8.97
2023-02-28T04:47:04.378Z,8.70
2023-02-28T04:49:25.627Z,14.20
2023-02-28T04:51:48.321Z,7.27
2023-02-28T04:54:10.395Z,8.50
2023-02-28T04:56:31.530Z,7.53
2023-02-28T04:58:54.157Z,7.40
2023-02-28T05:01:19.560Z,9.33
2023-02-28T05:03:41.486Z,7.33
2023-02-28T05:06:02.878Z,8.43
2023-02-28T05:08:26.157Z,7.40
2023-02-28T05:10:47.379Z,7.73
2023-02-28T05:13:08.610Z,7.27
2023-02-28T05:15:30.067Z,7.77
2023-02-28T05:17:51.124Z,8.17
2023-02-28T05:20:15.608Z,7.80
2023-02-28T05:22:37.024Z,7.90
2023-02-28T05:25:00.081Z,7.83
2023-02-28T05:27:21.290Z,7.93
2023-02-28T05:29:44.282Z,7.23
2023-02-28T05:32:05.926Z,8.07
2023-02-28T05:34:27.390Z,8.83
2023-02-28T05:36:48.676Z,7.90
2023-02-28T05:39:13.437Z,8.57
2023-02-28T05:41:35.969Z,8.07
2023-02-28T05:43:57.148Z,8.73
2023-02-28T05:46:18.338Z,8.27
2023-02-28T05:48:40.491Z,8.13
2023-02-28T05:51:01.695Z,8.80
2023-02-28T05:53:22.904Z,7.60
2023-02-28T05:55:43.990Z,9.67
2023-02-28T05:58:06.759Z,8.23
2023-02-28T06:00:28.770Z,8.80
2023-02-28T06:02:50.185Z,9.50
2023-02-28T06:05:14.727Z,8.10
2023-02-28T06:07:35.713Z,9.17
2023-02-28T06:09:56.895Z,7.90
2023-02-28T06:12:18.454Z,8.60
2023-02-28T06:14:40.728Z,9.00
2023-02-28T06:17:02.222Z,10.00
2023-02-28T06:19:26.604Z,8.93
2023-02-28T06:21:51.773Z,11.63
2023-02-28T06:24:13.182Z,8.83
2023-02-28T06:26:34.468Z,9.27
2023-02-28T06:28:55.717Z,9.50
2023-02-28T06:31:18.677Z,8.73
2023-02-28T06:33:40.224Z,7.90
2023-02-28T06:36:01.242Z,9.43
2023-02-28T06:38:22.503Z,9.47
2023-02-28T06:40:44.765Z,9.53
2023-02-28T06:43:06.053Z,8.33
2023-02-28T06:45:27.511Z,8.93
2023-02-28T06:47:53.039Z,9.20
2023-02-28T06:50:14.370Z,10.37
2023-02-28T06:52:37.544Z,10.13
2023-02-28T06:55:02.011Z,10.40
2023-02-28T06:57:23.267Z,9.43
2023-02-28T06:59:44.627Z,11.63
2023-02-28T07:02:07.375Z,8.93
2023-02-28T07:04:30.473Z,9.50
2023-02-28T07:06:51.591Z,11.97
2023-02-28T07:09:12.913Z,10.33
2023-02-28T07:11:34.272Z,10.17
2023-02-28T07:13:55.576Z,9.43
2023-02-28T07:16:17.063Z,10.63
2023-02-28T07:18:38.759Z,10.27
2023-02-28T07:21:03.375Z,10.83
2023-02-28T07:23:24.788Z,9.77
2023-02-28T07:25:46.529Z,11.37
2023-02-28T07:28:07.450Z,10.20
2023-02-28T07:30:28.870Z,9.97
2023-02-28T07:32:49.950Z,10.03
2023-02-28T07:35:11.287Z,10.80
2023-02-28T07:37:37.457Z,10.40
2023-02-28T07:39:58.796Z,10.20
2023-02-28T07:42:20.419Z,12.97
2023-02-28T07:44:42.133Z,10.50
2023-02-28T07:47:03.518Z,9.73
2023-02-28T07:49:24.654Z,10.87
2023-02-28T07:51:46.000Z,10.90
2023-02-28T07:54:08.741Z,10.80
2023-02-28T07:56:30.044Z,11.67
2023-02-28T07:58:51.627Z,9.80
2023-02-28T08:01:13.400Z,12.27
2023-02-28T08:03:34.786Z,12.20
2023-02-28T08:05:56.230Z,11.20
2023-02-28T08:08:17.958Z,10.90
2023-02-28T08:10:40.435Z,12.67
2023-02-28T08:13:02.041Z,10.63
2023-02-28T08:15:23.387Z,10.63
2023-02-28T08:17:44.451Z,10.63
2023-02-28T08:20:06.329Z,10.97
2023-02-28T08:22:27.467Z,11.10
2023-02-28T08:24:48.646Z,12.13
2023-02-28T08:27:11.311Z,10.73
2023-02-28T08:29:32.624Z,10.97
2023-02-28T08:31:53.913Z,10.70
2023-02-28T08:34:15.633Z,9.97
2023-02-28T08:36:36.747Z,10.17
2023-02-28T08:38:59.238Z,10.87
2023-02-28T08:41:20.251Z,12.57
2023-02-28T08:43:42.859Z,10.97
2023-02-28T08:46:04.597Z,10.97
2023-02-28T08:48:26.390Z,11.13
2023-02-28T08:51:06.627Z,11.23
2023-02-28T08:53:29.063Z,11.70
2023-02-28T08:55:57.158Z,10.57
2023-02-28T08:58:18.522Z,10.37
2023-02-28T09:00:41.827Z,10.03
2023-02-28T09:03:02.835Z,10.07
2023-02-28T09:05:24.449Z,9.83
2023-02-28T09:07:46.279Z,11.00
2023-02-28T09:10:07.741Z,14.67
2023-02-28T09:12:30.046Z,10.10
2023-02-28T09:14:51.260Z,12.93
2023-02-28T09:17:13.898Z,9.90
2023-02-28T09:19:35.248Z,10.60
2023-02-28T09:21:56.594Z,11.80
2023-02-28T09:24:17.975Z,10.00
2023-02-28T09:26:43.445Z,11.47
2023-02-28T09:29:18.502Z,12.97
2023-02-28T09:31:39.837Z,10.90
2023-02-28T09:34:02.467Z,11.97
2023-02-28T09:36:28.961Z,12.60
2023-02-28T09:38:55.629Z,11.07
2023-02-28T09:41:18.605Z,11.30
2023-02-28T09:43:42.718Z,10.97
2023-02-28T09:46:07.934Z,11.00
2023-02-28T09:48:31.634Z,11.33
2023-02-28T09:50:57.648Z,11.20
2023-02-28T09:53:21.598Z,10.70
2023-02-28T09:55:47.328Z,11.27
2023-02-28T09:58:17.521Z,10.67
2023-02-28T10:00:41.509Z,12.17
2023-02-28T10:03:06.712Z,11.23
2023-02-28T10:05:29.041Z,11.40
2023-02-28T10:08:01.057Z,11.10
2023-02-28T10:10:25.098Z,11.20
2023-02-28T10:12:46.589Z,12.13
2023-02-28T10:15:15.699Z,10.53
2023-02-28T10:17:49.447Z,12.23
2023-02-28T10:20:20.564Z,12.27
2023-02-28T10:22:46.396Z,10.50
2023-02-28T10:25:18.257Z,10.60
2023-02-28T10:27:39.323Z,11.33
2023-02-28T10:30:01.609Z,11.50
2023-02-28T10:32:25.175Z,11.73
2023-02-28T10:34:46.615Z,11.17
2023-02-28T10:37:09.167Z,11.70
2023-02-28T10:39:40.482Z,11.20
2023-02-28T10:42:02.910Z,10.87
2023-02-28T10:44:25.495Z,11.23
2023-02-28T10:46:47.220Z,12.20
2023-02-28T10:49:14.325Z,11.43
2023-02-28T10:51:39.077Z,13.47
2023-02-28T10:54:01.904Z,11.27
2023-02-28T10:56:24.117Z,11.57
2023-02-28T10:58:52.199Z,12.73
2023-02-28T11:01:16.054Z,11.37
2023-02-28T11:03:37.478Z,11.60
2023-02-28T11:05:59.038Z,10.80
2023-02-28T11:08:20.543Z,10.80
2023-02-28T11:10:41.720Z,10.77
2023-02-28T11:13:03.248Z,11.17
2023-02-28T11:15:27.172Z,10.27
2023-02-28T11:17:55.289Z,10.97
2023-02-28T11:20:24.316Z,10.70
2023-02-28T11:22:46.506Z,11.77
2023-02-28T11:25:09.782Z,10.43
2023-02-28T11:27:49.169Z,11.87
2023-02-28T11:32:38.635Z,11.53
2023-02-28T11:35:02.765Z,10.47
2023-02-28T11:37:24.944Z,10.67
2023-02-28T11:39:46.626Z,11.17
2023-02-28T11:42:25.922Z,11.13
2023-02-28T11:44:56.849Z,12.23
2023-02-28T11:47:21.841Z,11.80
2023-02-28T11:49:46.503Z,11.03
2023-02-28T11:52:12.039Z,11.27
2023-02-28T11:54:39.542Z,10.90
2023-02-28T11:57:02.275Z,11.20
2023-02-28T11:59:31.236Z,11.23
2023-02-28T12:02:05.756Z,10.63
2023-02-28T12:04:29.613Z,13.30
2023-02-28T12:06:57.591Z,10.90
2023-02-28T12:09:32.165Z,11.00
2023-02-28T12:11:55.084Z,11.30
2023-02-28T12:14:27.498Z,11.60
2023-02-28T12:16:55.370Z,11.50
2023-02-28T12:19:22.277Z,11.67
2023-02-28T12:21:50.720Z,12.07
2023-02-28T12:24:37.852Z,10.97
2023-02-28T12:27:00.803Z,11.20
2023-02-28T12:29:25.120Z,10.83
2023-02-28T12:31:49.387Z,10.93
2023-02-28T12:34:14.294Z,11.30
2023-02-28T12:36:36.033Z,11.63
2023-02-28T12:38:58.800Z,11.27
2023-02-28T12:41:24.927Z,11.57
2023-02-28T12:43:47.278Z,11.23
2023-02-28T12:46:10.688Z,11.10
2023-02-28T12:48:33.989Z,10.83
2023-02-28T12:50:55.383Z,10.90
2023-02-28T12:53:20.242Z,10.93
2023-02-28T12:55:45.083Z,10.57
2023-02-28T12:58:12.879Z,10.80
2023-02-28T13:00:36.541Z,9.67
2023-02-28T13:03:12.468Z,11.17
2023-02-28T13:05:55.589Z,11.13
2023-02-28T13:08:41.543Z,11.27
2023-02-28T13:11:05.565Z,10.60
2023-02-28T13:13:31.211Z,10.33
2023-02-28T13:16:03.344Z,12.17
2023-02-28T13:18:30.162Z,10.13
2023-02-28T13:20:52.251Z,11.53
2023-02-28T13:23:28.220Z,10.13
2023-02-28T13:25:54.356Z,10.53
2023-02-28T13:28:35.901Z,9.73
2023-02-28T13:31:08.057Z,10.33
2023-02-28T13:33:30.409Z,10.30
2023-02-28T13:36:02.808Z,9.50
2023-02-28T13:38:26.003Z,9.40
2023-02-28T13:40:47.262Z,9.23
2023-02-28T13:43:09.972Z,9.63
2023-02-28T13:45:38.032Z,9.23
2023-02-28T13:48:05.263Z,9.77
2023-02-28T13:50:30.433Z,9.83
2023-02-28T13:52:56.340Z,9.90
2023-02-28T13:55:25.873Z,8.77
2023-02-28T13:57:55.079Z,10.20
2023-02-28T14:00:23.553Z,9.83
2023-02-28T14:02:53.224Z,9.60
2023-02-28T14:05:17.861Z,9.60
2023-02-28T14:07:41.705Z,9.27
2023-02-28T14:10:06.448Z,10.13
2023-02-28T14:12:46.442Z,10.63
2023-02-28T14:15:27.777Z,9.70
2023-02-28T14:17:52.504Z,10.83
2023-02-28T14:20:17.378Z,9.17
2023-02-28T14:22:51.549Z,9.67
2023-02-28T14:25:17.694Z,9.40
2023-02-28T14:27:43.047Z,10.40
2023-02-28T14:30:22.437Z,10.53
2023-02-28T14:32:45.935Z,9.47
2023-02-28T14:35:14.985Z,9.80
2023-02-28T14:37:40.663Z,10.93
2023-02-28T14:40:02.762Z,10.13
2023-02-28T14:42:29.629Z,11.27
2023-02-28T14:44:56.135Z,10.93
2023-02-28T14:47:17.802Z,9.60
2023-02-28T14:49:40.401Z,10.73
2023-02-28T14:52:07.578Z,10.17
2023-02-28T14:54:30.741Z,9.93
2023-02-28T14:56:52.168Z,9.90
2023-02-28T14:59:26.732Z,10.13
2023-02-28T15:01:48.157Z,9.40
2023-02-28T15:04:20.444Z,10.27
2023-02-28T15:06:42.550Z,9.83
2023-02-28T15:09:15.725Z,9.33
2023-02-28T15:11:39.262Z,10.10
2023-02-28T15:14:00.473Z,9.53
2023-02-28T15:16:22.621Z,9.97
2023-02-28T15:18:46.884Z,10.37
2023-02-28T15:21:09.831Z,9.93
2023-02-28T15:23:31.871Z,9.70
2023-02-28T15:25:53.615Z,10.43
2023-02-28T15:28:18.095Z,9.63
2023-02-28T15:30:39.566Z,9.90
2023-02-28T15:33:05.538Z,10.07
2023-02-28T15:35:29.424Z,9.47
2023-02-28T15:37:54.465Z,9.87
2023-02-28T15:40:17.215Z,9.80
2023-02-28T15:42:38.479Z,10.07
2023-02-28T15:45:01.819Z,9.47
2023-02-28T15:47:24.064Z,10.10
2023-02-28T15:49:47.901Z,10.13
2023-02-28T15:52:14.553Z,10.33
2023-02-28T15:54:36.828Z,9.63
2023-02-28T15:56:59.168Z,10.10
2023-02-28T15:59:23.227Z,10.33
2023-02-28T16:01:45.880Z,11.30
2023-02-28T16:04:08.396Z,9.97
2023-02-28T16:06:37.896Z,10.87
2023-02-28T16:08:59.026Z,10.37
2023-02-28T16:11:20.807Z,10.73
2023-02-28T16:13:42.102Z,9.87
2023-02-28T16:16:03.467Z,10.13
2023-02-28T16:18:26.158Z,9.60
2023-02-28T16:20:47.280Z,10.03
2023-02-28T16:23:09.157Z,10.43
2023-02-28T16:25:35.616Z,11.33
2023-02-28T16:27:58.791Z,10.83
2023-02-28T16:30:22.121Z,11.00
2023-02-28T16:32:43.206Z,11.33
2023-02-28T16:35:07.901Z,11.23
2023-02-28T16:37:29.503Z,11.00
2023-02-28T16:39:52.017Z,10.83
2023-02-28T16:42:15.107Z,12.03
2023-02-28T16:44:37.264Z,11.00
2023-02-28T16:46:58.591Z,12.33
2023-02-28T16:49:20.038Z,11.57
2023-02-28T16:51:42.672Z,12.07
2023-02-28T16:54:03.955Z,11.90
2023-02-28T16:56:25.941Z,12.17
2023-02-28T16:58:47.328Z,11.70
2023-02-28T17:01:08.420Z,12.17
2023-02-28T17:03:33.558Z,12.97
2023-02-28T17:05:55.232Z,11.67
2023-02-28T17:08:18.362Z,12.27
2023-02-28T17:10:39.280Z,11.57
2023-02-28T17:13:12.878Z,11.50
2023-02-28T17:15:36.476Z,12.67
2023-02-28T17:17:58.364Z,12.50
2023-02-28T17:20:23.374Z,12.67
2023-02-28T17:22:44.724Z,15.00
2023-02-28T17:25:08.293Z,12.87
2023-02-28T17:27:29.552Z,15.73
2023-02-28T17:29:50.902Z,12.40
2023-02-28T17:32:19.202Z,12.73
2023-02-28T17:34:40.524Z,12.37
2023-02-28T17:37:03.303Z,12.53
2023-02-28T17:39:26.341Z,12.90
2023-02-28T17:41:48.622Z,12.73
2023-02-28T17:44:09.829Z,14.13
2023-02-28T17:46:31.585Z,13.20
2023-02-28T17:48:53.775Z,12.77
2023-02-28T17:51:15.382Z,14.97
2023-02-28T17:53:36.678Z,12.80
2023-02-28T17:55:58.018Z,13.50
2023-02-28T17:58:20.662Z,12.53
2023-02-28T18:00:42.342Z,12.37
2023-02-28T18:03:03.626Z,12.47
2023-02-28T18:05:24.797Z,14.20
2023-02-28T18:07:45.865Z,14.10
2023-02-28T18:10:07.615Z,13.20
2023-02-28T18:12:28.815Z,13.40
2023-02-28T18:14:51.486Z,12.87
2023-02-28T18:17:13.983Z,12.73
2023-02-28T18:19:35.596Z,13.47
2023-02-28T18:21:56.764Z,13.10
2023-02-28T18:24:18.949Z,13.87
2023-02-28T18:26:40.615Z,13.73
2023-02-28T18:29:01.881Z,13.33
2023-02-28T18:31:24.654Z,12.60
2023-02-28T18:33:46.145Z,13.80
2023-02-28T18:36:07.655Z,14.07
2023-02-28T18:38:29.127Z,16.67
2023-02-28T18:40:53.857Z,14.83
2023-02-28T18:43:15.281Z,16.67
2023-02-28T18:45:37.202Z,16.93
2023-02-28T18:47:59.983Z,17.63
2023-02-28T18:50:21.532Z,16.93
2023-02-28T18:52:42.442Z,18.13
2023-02-28T18:55:03.726Z,18.40
2023-02-28T18:57:25.087Z,17.30
2023-02-28T18:59:46.367Z,18.40
2023-02-28T19:02:07.828Z,19.00
2023-02-28T19:04:30.441Z,18.87
2023-02-28T19:06:51.486Z,22.13
2023-02-28T19:09:12.799Z,17.37
2023-02-28T19:11:36.573Z,18.90
2023-02-28T19:13:57.958Z,19.00
2023-02-28T19:16:19.416Z,19.43
2023-02-28T19:18:40.922Z,18.67
2023-02-28T19:21:03.583Z,19.03
2023-02-28T19:23:25.316Z,20.87
2023-02-28T19:25:46.560Z,20.53
2023-02-28T19:28:07.931Z,19.70
2023-02-28T19:30:29.417Z,17.60
2023-02-28T19:32:51.406Z,19.00
2023-02-28T19:35:12.935Z,20.57
2023-02-28T19:37:37.775Z,19.47
2023-02-28T19:39:59.069Z,18.63
2023-02-28T19:42:20.306Z,21.40
2023-02-28T19:44:41.597Z,19.33
2023-02-28T19:47:03.038Z,21.30
2023-02-28T19:49:26.001Z,20.77
2023-02-28T19:51:47.670Z,22.07
2023-02-28T19:54:10.297Z,21.47
2023-02-28T19:56:31.866Z,22.67
2023-02-28T19:58:53.125Z,19.57
2023-02-28T20:01:15.043Z,19.93
2023-02-28T20:03:36.098Z,19.93
2023-02-28T20:06:01.503Z,21.03
2023-02-28T20:08:22.815Z,19.10
2023-02-28T20:10:45.451Z,21.60
2023-02-28T20:13:07.273Z,20.03
2023-02-28T20:15:28.888Z,20.13
2023-02-28T20:17:50.101Z,22.47
2023-02-28T20:20:12.299Z,23.40
2023-02-28T20:22:33.402Z,21.93
2023-02-28T20:24:54.671Z,22.97
2023-02-28T20:27:17.437Z,22.20
2023-02-28T20:29:38.817Z,21.43
2023-02-28T20:32:00.135Z,22.03
2023-02-28T20:34:23.227Z,22.27
2023-02-28T20:36:44.270Z,21.53
2023-02-28T20:39:05.550Z,20.43
2023-02-28T20:41:26.441Z,21.50
2023-02-28T20:43:53.482Z,20.93
2023-02-28T20:46:14.851Z,22.30
2023-02-28T20:48:36.588Z,25.77
2023-02-28T20:50:58.596Z,23.23
2023-02-28T20:53:19.889Z,23.93
2023-02-28T20:55:41.163Z,22.73
2023-02-28T20:58:03.338Z,23.60
2023-02-28T21:00:26.410Z,24.60
2023-02-28T21:02:47.390Z,21.87
2023-02-28T21:05:08.969Z,24.70
2023-02-28T21:07:30.468Z,19.60
2023-02-28T21:09:51.536Z,22.80
2023-02-28T21:12:12.912Z,20.90
2023-02-28T21:14:34.262Z,20.07
2023-02-28T21:16:57.112Z,20.50
2023-02-28T21:19:18.680Z,18.57
2023-02-28T21:21:42.995Z,21.33
2023-02-28T21:24:04.091Z,19.33
2023-02-28T21:26:25.689Z,20.33
2023-02-28T21:28:50.276Z,21.70
2023-02-28T21:31:13.194Z,21.70
2023-02-28T21:33:36.280Z,21.73
2023-02-28T21:36:02.194Z,21.53
2023-02-28T21:38:23.313Z,21.90
2023-02-28T21:40:44.517Z,22.53
2023-02-28T21:43:05.872Z,25.10
2023-02-28T21:45:27.166Z,22.60
2023-02-28T21:47:48.442Z,25.57
2023-02-28T21:50:12.307Z,23.00
2023-02-28T21:52:33.346Z,23.23
2023-02-28T21:54:54.776Z,23.73
2023-02-28T21:57:16.366Z,23.13
2023-02-28T21:59:37.638Z,23.30
2023-02-28T22:01:59.021Z,22.20
2023-02-28T22:04:22.481Z,23.43
2023-02-28T22:06:46.176Z,21.73
2023-02-28T22:09:08.534Z,23.33
2023-02-28T22:11:30.171Z,23.23
2023-02-28T22:13:53.027Z,23.43
2023-02-28T22:16:16.238Z,23.27
2023-02-28T22:18:37.760Z,24.73
2023-02-28T22:20:59.122Z,21.90
2023-02-28T22:23:21.853Z,21.10
2023-02-28T22:25:43.344Z,21.23
2023-02-28T22:28:04.675Z,24.37
2023-02-28T22:30:25.869Z,21.33
2023-02-28T22:32:47.273Z,22.47
2023-02-28T22:35:08.734Z,21.97
2023-02-28T22:37:30.152Z,23.60
2023-02-28T22:39:53.148Z,23.00
2023-02-28T22:42:14.301Z,21.83
2023-02-28T22:44:35.504Z,22.70
2023-02-28T22:46:56.759Z,23.67
2023-02-28T22:49:18.055Z,23.93
2023-02-28T22:51:39.317Z,22.00
2023-02-28T22:54:00.505Z,22.23
2023-02-28T22:56:24.555Z,22.37
2023-02-28T22:58:49.689Z,22.63
2023-02-28T23:01:11.866Z,23.00
2023-02-28T23:03:33.169Z,21.87
2023-02-28T23:05:55.206Z,21.77
2023-02-28T23:08:16.286Z,25.57
2023-02-28T23:10:42.078Z,23.70
2023-02-28T23:13:04.833Z,21.43
2023-02-28T23:15:25.828Z,22.90
2023-02-28T23:17:47.923Z,22.30
2023-02-28T23:20:09.589Z,21.20
2023-02-28T23:22:30.937Z,22.23
2023-02-28T23:24:53.199Z,22.50
2023-02-28T23:27:14.342Z,21.53
2023-02-28T23:29:37.530Z,23.13
2023-02-28T23:31:58.881Z,20.90
2023-02-28T23:34:26.132Z,23.73
2023-02-28T23:36:47.525Z,23.83
2023-02-28T23:39:09.360Z,21.63
2023-02-28T23:41:30.671Z,21.50
2023-02-28T23:43:52.629Z,21.47
2023-02-28T23:46:15.984Z,22.33
2023-02-28T23:48:37.279Z,20.37
2023-02-28T23:51:01.767Z,19.67
2023-02-28T23:53:22.989Z,22.27
2023-02-28T23:55:47.034Z,20.50
2023-02-28T23:58:08.604Z,21.60
